createdAt,value
2023-10-26T00:01:20.940Z,93.69
2023-10-26T00:03:23.751Z,94.00
2023-10-26T00:05:26.882Z,93.97
2023-10-26T00:07:29.937Z,94.33
2023-10-26T00:09:32.652Z,93.39
2023-10-26T00:11:35.378Z,94.27
2023-10-26T00:13:39.589Z,93.57
2023-10-26T00:15:42.169Z,95.46
2023-10-26T00:17:45.401Z,94.82
2023-10-26T00:19:48.160Z,95.22
2023-10-26T00:21:52.997Z,94.65
2023-10-26T00:23:55.585Z,95.53
2023-10-26T00:25:58.742Z,96.07
2023-10-26T00:28:01.436Z,95.43
2023-10-26T00:30:07.419Z,95.59
2023-10-26T00:32:10.405Z,95.25
2023-10-26T00:34:13.967Z,95.86
2023-10-26T00:36:16.539Z,94.66
2023-10-26T00:38:19.267Z,93.78
2023-10-26T00:40:22.028Z,94.09
2023-10-26T00:42:29.277Z,94.35
2023-10-26T00:44:33.080Z,94.79
2023-10-26T00:46:37.727Z,94.40
2023-10-26T00:48:41.590Z,94.68
2023-10-26T00:50:45.635Z,95.98
2023-10-26T00:52:49.851Z,95.54
2023-10-26T00:54:54.159Z,96.91
2023-10-26T00:56:58.608Z,96.95
2023-10-26T00:59:01.512Z,96.95
2023-10-26T01:01:04.394Z,97.18
2023-10-26T01:03:08.588Z,97.47
2023-10-26T01:05:11.232Z,95.92
2023-10-26T01:07:13.874Z,96.56
2023-10-26T01:09:17.326Z,96.86
2023-10-26T01:11:20.920Z,95.82
2023-10-26T01:13:23.949Z,95.41
2023-10-26T01:15:26.752Z,95.17
2023-10-26T01:17:29.659Z,94.90
2023-10-26T01:19:41.076Z,95.02
2023-10-26T01:21:51.848Z,95.52
2023-10-26T01:23:56.155Z,94.71
2023-10-26T01:25:59.945Z,95.45
2023-10-26T01:28:02.850Z,95.54
2023-10-26T01:30:06.964Z,96.31
2023-10-26T01:32:10.627Z,98.08
2023-10-26T01:34:13.246Z,97.30
2023-10-26T01:36:16.102Z,96.90
2023-10-26T01:38:20.181Z,98.56
2023-10-26T01:40:22.977Z,98.19
2023-10-26T01:42:25.596Z,99.44
2023-10-26T01:44:28.295Z,98.26
2023-10-26T01:46:31.187Z,97.19
2023-10-26T01:48:34.020Z,97.41
2023-10-26T01:50:37.221Z,96.59
2023-10-26T01:52:41.279Z,97.94
2023-10-26T01:54:45.555Z,97.28
2023-10-26T01:56:48.485Z,96.79
2023-10-26T01:58:51.277Z,96.52
2023-10-26T02:00:54.011Z,96.39
2023-10-26T02:02:57.475Z,95.69
2023-10-26T02:05:00.549Z,96.68
2023-10-26T02:07:03.278Z,96.37
2023-10-26T02:09:06.168Z,95.72
2023-10-26T02:11:10.210Z,95.46
2023-10-26T02:13:13.019Z,95.51
2023-10-26T02:15:15.925Z,96.31
2023-10-26T02:17:18.859Z,95.38
2023-10-26T02:19:22.835Z,97.97
2023-10-26T02:21:25.774Z,96.70
2023-10-26T02:23:29.425Z,96.82
2023-10-26T02:25:32.502Z,96.96
2023-10-26T02:27:37.154Z,97.75
2023-10-26T02:29:40.397Z,96.39
2023-10-26T02:31:43.402Z,97.08
2023-10-26T02:33:46.299Z,97.16
2023-10-26T02:35:49.142Z,100.00
2023-10-26T02:37:52.124Z,99.62
2023-10-26T02:39:56.240Z,98.80
2023-10-26T02:41:59.399Z,97.81
2023-10-26T02:44:04.361Z,97.90
2023-10-26T02:46:07.382Z,98.38
2023-10-26T02:48:10.295Z,98.49
2023-10-26T02:50:13.500Z,97.88
2023-10-26T02:52:16.420Z,98.22
2023-10-26T02:54:19.426Z,99.18
2023-10-26T02:56:22.381Z,98.89
2023-10-26T02:58:26.044Z,98.82
2023-10-26T03:00:30.677Z,99.31
2023-10-26T03:02:34.086Z,98.39
2023-10-26T03:04:39.050Z,98.28
2023-10-26T03:06:42.749Z,98.01
2023-10-26T03:08:45.652Z,100.00
2023-10-26T03:10:48.848Z,99.48
2023-10-26T03:12:51.839Z,100.00
2023-10-26T03:14:54.774Z,100.00
2023-10-26T03:16:59.686Z,100.00
2023-10-26T03:19:02.625Z,100.00
2023-10-26T03:21:06.064Z,100.00
2023-10-26T03:23:09.036Z,100.00
2023-10-26T03:25:15.437Z,100.00
2023-10-26T03:27:18.976Z,98.95
2023-10-26T03:29:22.881Z,98.95
2023-10-26T03:31:25.896Z,99.93
2023-10-26T03:33:30.300Z,99.57
2023-10-26T03:35:36.803Z,100.00
2023-10-26T03:37:39.760Z,100.00
2023-10-26T03:39:42.803Z,100.00
2023-10-26T03:41:45.842Z,100.00
2023-10-26T03:43:48.928Z,99.25
2023-10-26T03:45:51.871Z,99.95
2023-10-26T03:47:55.095Z,99.58
2023-10-26T03:49:59.512Z,98.85
2023-10-26T03:52:02.729Z,98.62
2023-10-26T03:54:05.947Z,98.09
2023-10-26T03:56:09.670Z,99.22
2023-10-26T03:58:13.985Z,99.29
2023-10-26T04:00:18.177Z,99.57
2023-10-26T04:02:21.144Z,99.83
2023-10-26T04:04:24.133Z,99.13
2023-10-26T04:06:28.438Z,100.00
2023-10-26T04:08:31.370Z,100.00
2023-10-26T04:10:35.620Z,100.00
2023-10-26T04:12:38.902Z,100.00
2023-10-26T04:14:41.831Z,99.98
2023-10-26T04:16:49.159Z,99.42
2023-10-26T04:18:52.148Z,98.95
2023-10-26T04:20:55.133Z,100.00
2023-10-26T04:22:59.706Z,100.00
2023-10-26T04:25:02.687Z,100.00
2023-10-26T04:27:05.776Z,100.00
2023-10-26T04:29:09.002Z,100.00
2023-10-26T04:31:11.865Z,100.00
2023-10-26T04:33:15.208Z,100.00
2023-10-26T04:35:18.246Z,99.92
2023-10-26T04:37:21.360Z,99.03
2023-10-26T04:39:25.872Z,98.46
2023-10-26T04:41:28.835Z,98.74
2023-10-26T04:43:31.700Z,98.87
2023-10-26T04:45:34.964Z,97.78
2023-10-26T04:47:38.114Z,97.92
2023-10-26T04:49:41.786Z,97.05
2023-10-26T04:51:44.683Z,97.30
2023-10-26T04:53:47.659Z,97.78
2023-10-26T04:55:52.162Z,99.23
2023-10-26T04:57:55.235Z,98.54
2023-10-26T04:59:58.258Z,97.84
2023-10-26T05:02:01.215Z,98.11
2023-10-26T05:04:04.251Z,98.08
2023-10-26T05:06:08.179Z,98.54
2023-10-26T05:08:11.117Z,97.55
2023-10-26T05:10:14.600Z,98.04
2023-10-26T05:12:19.038Z,98.22
2023-10-26T05:14:22.031Z,97.51
2023-10-26T05:16:25.180Z,97.25
2023-10-26T05:18:28.312Z,97.70
2023-10-26T05:20:32.039Z,96.61
2023-10-26T05:22:35.191Z,97.05
2023-10-26T05:24:40.391Z,96.75
2023-10-26T05:26:43.356Z,96.71
2023-10-26T05:28:48.640Z,96.55
2023-10-26T05:30:51.694Z,96.02
2023-10-26T05:32:54.664Z,96.14
2023-10-26T05:34:57.653Z,96.22
2023-10-26T05:37:00.528Z,95.70
2023-10-26T05:39:04.820Z,96.02
2023-10-26T05:41:07.771Z,95.51
2023-10-26T05:43:11.809Z,96.11
2023-10-26T05:45:16.527Z,95.43
2023-10-26T05:47:22.018Z,95.12
2023-10-26T05:49:24.715Z,95.12
2023-10-26T05:51:27.868Z,94.82
2023-10-26T05:53:30.800Z,95.76
2023-10-26T05:55:33.823Z,95.40
2023-10-26T05:57:36.828Z,95.44
2023-10-26T05:59:39.861Z,95.55
2023-10-26T06:01:44.273Z,95.46
2023-10-26T06:03:47.403Z,95.00
2023-10-26T06:05:50.372Z,95.76
2023-10-26T06:07:53.613Z,95.72
2023-10-26T06:09:56.707Z,95.25
2023-10-26T06:11:59.766Z,95.90
2023-10-26T06:14:02.675Z,95.45
2023-10-26T06:16:06.558Z,95.24
2023-10-26T06:18:14.416Z,95.45
2023-10-26T06:20:18.353Z,95.23
2023-10-26T06:22:21.280Z,95.30
2023-10-26T06:24:24.341Z,94.34
2023-10-26T06:26:27.308Z,94.89
2023-10-26T06:28:30.691Z,95.21
2023-10-26T06:30:35.595Z,94.62
2023-10-26T06:32:38.895Z,94.63
2023-10-26T06:34:43.500Z,95.17
2023-10-26T06:36:46.869Z,95.64
2023-10-26T06:38:49.837Z,95.35
2023-10-26T06:40:52.963Z,95.79
2023-10-26T06:42:56.007Z,95.21
2023-10-26T06:44:59.082Z,95.21
2023-10-26T06:47:02.214Z,94.78
2023-10-26T06:49:18.353Z,94.45
2023-10-26T06:51:31.544Z,94.49
2023-10-26T06:53:34.568Z,94.13
2023-10-26T06:55:37.473Z,95.17
2023-10-26T06:57:40.536Z,94.17
2023-10-26T06:59:43.494Z,94.72
2023-10-26T07:02:09.594Z,94.86
2023-10-26T07:04:09.376Z,94.29
2023-10-26T07:06:12.382Z,94.39
2023-10-26T07:08:17.140Z,95.32
2023-10-26T07:10:22.868Z,93.84
2023-10-26T07:12:26.028Z,93.96
2023-10-26T07:14:29.093Z,93.24
2023-10-26T07:16:32.063Z,93.28
2023-10-26T07:18:35.295Z,93.68
2023-10-26T07:20:38.636Z,92.22
2023-10-26T07:22:42.031Z,92.19
2023-10-26T07:24:46.496Z,93.48
2023-10-26T07:26:51.202Z,93.36
2023-10-26T07:28:56.424Z,92.85
2023-10-26T07:30:59.891Z,92.94
2023-10-26T07:33:03.038Z,92.80
2023-10-26T07:35:06.602Z,92.12
2023-10-26T07:37:09.605Z,90.84
2023-10-26T07:39:44.485Z,92.44
2023-10-26T07:42:06.779Z,91.45
2023-10-26T07:43:59.857Z,91.19
2023-10-26T07:46:03.312Z,90.20
2023-10-26T07:48:06.882Z,90.99
2023-10-26T07:50:10.187Z,89.56
2023-10-26T07:52:13.137Z,90.78
2023-10-26T07:54:16.399Z,89.67
2023-10-26T07:56:20.764Z,90.65
2023-10-26T07:58:25.601Z,89.19
2023-10-26T08:00:29.287Z,88.43
2023-10-26T08:02:35.290Z,88.46
2023-10-26T08:04:38.940Z,86.86
2023-10-26T08:06:41.872Z,86.26
2023-10-26T08:08:44.856Z,81.63
2023-10-26T08:10:47.867Z,77.89
2023-10-26T08:12:53.177Z,75.88
2023-10-26T08:16:10.895Z,73.82
2023-10-26T08:17:22.376Z,72.28
2023-10-26T08:19:26.175Z,69.84
2023-10-26T08:21:29.666Z,70.87
2023-10-26T08:23:34.469Z,73.06
2023-10-26T08:25:38.098Z,73.34
2023-10-26T08:27:41.095Z,74.10
2023-10-26T08:29:44.605Z,75.85
2023-10-26T08:31:49.334Z,75.47
2023-10-26T08:33:52.440Z,76.40
2023-10-26T08:35:55.375Z,78.72
2023-10-26T08:37:58.555Z,79.01
2023-10-26T08:40:01.573Z,80.02
2023-10-26T08:42:05.562Z,78.15
2023-10-26T08:44:08.726Z,78.09
2023-10-26T08:46:13.421Z,78.88
2023-10-26T08:48:19.467Z,78.72
2023-10-26T08:50:23.932Z,79.12
2023-10-26T08:52:28.560Z,80.65
2023-10-26T08:54:31.707Z,79.68
2023-10-26T08:56:34.716Z,79.10
2023-10-26T08:58:38.565Z,79.51
2023-10-26T09:00:42.490Z,78.30
2023-10-26T09:02:46.319Z,77.20
2023-10-26T09:05:04.456Z,77.58
2023-10-26T09:07:08.237Z,79.02
2023-10-26T09:09:11.577Z,80.97
2023-10-26T09:11:22.676Z,78.18
2023-10-26T09:13:27.273Z,76.25
2023-10-26T09:15:30.829Z,77.41
2023-10-26T09:17:34.386Z,77.75
2023-10-26T09:19:42.486Z,76.77
2023-10-26T09:21:58.143Z,77.70
2023-10-26T09:24:01.477Z,78.81
2023-10-26T09:26:05.939Z,78.34
2023-10-26T09:28:08.971Z,78.52
2023-10-26T09:30:27.408Z,77.00
2023-10-26T09:32:34.508Z,77.08
2023-10-26T09:34:44.059Z,77.03
2023-10-26T09:37:02.141Z,76.78
2023-10-26T09:39:08.624Z,75.80
2023-10-26T09:41:13.658Z,77.77
2023-10-26T09:43:16.627Z,78.08
2023-10-26T09:45:20.630Z,78.37
2023-10-26T09:47:26.034Z,76.81
2023-10-26T09:49:29.451Z,76.10
2023-10-26T09:51:32.527Z,76.58
2023-10-26T09:53:39.855Z,76.15
2023-10-26T09:55:44.573Z,76.39
2023-10-26T09:57:54.547Z,75.88
2023-10-26T10:00:00.671Z,76.86
2023-10-26T10:02:15.263Z,77.04
2023-10-26T10:04:35.234Z,75.49
2023-10-26T10:06:52.321Z,76.73
2023-10-26T10:09:03.530Z,76.26
2023-10-26T10:11:19.306Z,76.50
2023-10-26T10:13:37.618Z,75.48
2023-10-26T10:15:43.803Z,75.72
2023-10-26T10:18:04.458Z,76.54
2023-10-26T10:20:30.905Z,76.19
2023-10-26T10:22:55.267Z,77.37
2023-10-26T10:25:01.189Z,76.41
2023-10-26T10:27:10.958Z,76.52
2023-10-26T10:29:20.646Z,74.51
2023-10-26T10:31:42.177Z,74.22
2023-10-26T10:33:46.595Z,76.23
2023-10-26T10:36:04.639Z,74.10
2023-10-26T10:38:22.936Z,76.14
2023-10-26T10:40:27.482Z,76.86
2023-10-26T10:42:32.332Z,74.49
2023-10-26T10:44:37.817Z,76.21
2023-10-26T10:46:40.424Z,76.47
2023-10-26T10:49:04.766Z,74.18
2023-10-26T10:51:07.790Z,74.80
2023-10-26T10:53:16.600Z,75.72
2023-10-26T10:55:21.826Z,74.61
2023-10-26T10:57:26.691Z,74.46
2023-10-26T10:59:31.978Z,75.38
2023-10-26T11:01:34.820Z,75.44
2023-10-26T11:03:38.362Z,74.29
2023-10-26T11:05:41.873Z,75.76
2023-10-26T11:07:44.936Z,75.54
2023-10-26T11:09:49.620Z,73.90
2023-10-26T11:11:52.779Z,73.69
2023-10-26T11:14:10.951Z,74.32
2023-10-26T11:16:17.949Z,72.26
2023-10-26T11:18:21.134Z,73.23
2023-10-26T11:20:38.692Z,70.72
2023-10-26T11:22:41.596Z,72.92
2023-10-26T11:24:45.556Z,70.06
2023-10-26T11:27:09.388Z,72.12
2023-10-26T11:29:19.775Z,72.13
2023-10-26T11:31:43.958Z,71.55
2023-10-26T11:33:47.193Z,72.09
2023-10-26T11:35:50.104Z,72.36
2023-10-26T11:37:55.246Z,72.63
2023-10-26T11:39:58.222Z,70.58
2023-10-26T11:42:01.259Z,70.86
2023-10-26T11:44:05.463Z,70.25
2023-10-26T11:46:09.982Z,72.28
2023-10-26T11:48:12.997Z,71.90
2023-10-26T11:50:26.714Z,73.09
2023-10-26T11:52:29.691Z,71.86
2023-10-26T11:54:32.825Z,72.78
2023-10-26T11:56:35.789Z,73.72
2023-10-26T11:58:39.789Z,73.48
2023-10-26T12:00:43.699Z,72.92
2023-10-26T12:02:48.632Z,72.25
2023-10-26T12:04:51.584Z,71.07
2023-10-26T12:06:54.545Z,72.44
2023-10-26T12:08:57.498Z,71.75
2023-10-26T12:11:00.537Z,72.54
2023-10-26T12:13:03.702Z,73.39
2023-10-26T12:15:07.989Z,72.67
2023-10-26T12:17:11.165Z,71.44
2023-10-26T12:19:15.638Z,70.97
2023-10-26T12:21:19.009Z,71.05
2023-10-26T12:23:22.052Z,70.04
2023-10-26T12:25:25.300Z,70.71
2023-10-26T12:27:28.480Z,72.38
2023-10-26T12:29:32.708Z,73.65
2023-10-26T12:31:35.878Z,72.81
2023-10-26T12:33:41.306Z,72.97
2023-10-26T12:35:48.332Z,72.91
2023-10-26T12:37:51.328Z,71.81
2023-10-26T12:39:54.423Z,72.19
2023-10-26T12:41:57.226Z,73.00
2023-10-26T12:44:00.279Z,72.07
2023-10-26T12:46:03.309Z,74.04
2023-10-26T12:48:06.666Z,73.06
2023-10-26T12:50:09.816Z,72.10
2023-10-26T12:52:14.336Z,72.00
2023-10-26T12:54:17.427Z,73.88
2023-10-26T12:56:21.699Z,72.81
2023-10-26T12:58:24.677Z,71.12
2023-10-26T13:00:28.474Z,71.22
2023-10-26T13:02:31.502Z,73.18
2023-10-26T13:04:35.350Z,72.56
2023-10-26T13:06:38.593Z,72.48
2023-10-26T13:08:43.129Z,74.13
2023-10-26T13:10:46.119Z,73.07
2023-10-26T13:12:49.353Z,74.46
2023-10-26T13:14:56.935Z,74.06
2023-10-26T13:17:07.373Z,74.67
2023-10-26T13:19:10.326Z,74.22
2023-10-26T13:21:13.427Z,75.94
2023-10-26T13:23:16.358Z,76.60
2023-10-26T13:25:20.796Z,75.02
2023-10-26T13:27:23.960Z,74.64
2023-10-26T13:29:27.087Z,76.25
2023-10-26T13:31:30.188Z,76.17
2023-10-26T13:33:34.291Z,78.17
2023-10-26T13:35:37.285Z,76.30
2023-10-26T13:37:40.502Z,77.59
2023-10-26T13:39:43.767Z,78.27
2023-10-26T13:41:48.406Z,78.42
2023-10-26T13:43:52.749Z,78.98
2023-10-26T13:45:55.690Z,78.50
2023-10-26T13:48:01.118Z,80.23
2023-10-26T13:50:03.889Z,80.58
2023-10-26T13:52:07.233Z,78.83
2023-10-26T13:54:10.229Z,78.51
2023-10-26T13:56:13.178Z,80.17
2023-10-26T13:58:17.966Z,79.89
2023-10-26T14:00:20.917Z,80.94
2023-10-26T14:02:25.495Z,80.49
2023-10-26T14:04:28.468Z,80.26
2023-10-26T14:06:32.752Z,79.87
2023-10-26T14:08:36.219Z,79.46
2023-10-26T14:10:41.874Z,81.64
2023-10-26T14:12:44.363Z,80.17
2023-10-26T14:14:48.879Z,79.82
2023-10-26T14:16:52.477Z,81.39
2023-10-26T14:18:55.692Z,80.96
2023-10-26T14:20:58.639Z,79.99
2023-10-26T14:23:03.481Z,81.85
2023-10-26T14:25:08.174Z,86.20
2023-10-26T14:27:11.311Z,85.35
2023-10-26T14:29:14.787Z,86.27
2023-10-26T14:31:19.306Z,87.00
2023-10-26T14:33:23.028Z,86.87
2023-10-26T14:35:26.022Z,86.72
2023-10-26T14:37:28.988Z,86.23
2023-10-26T14:39:31.995Z,88.26
2023-10-26T14:41:35.174Z,85.96
2023-10-26T14:43:38.206Z,85.89
2023-10-26T14:45:41.238Z,85.21
2023-10-26T14:47:45.818Z,84.78
2023-10-26T14:49:48.777Z,85.81
2023-10-26T14:51:51.763Z,84.73
2023-10-26T14:53:55.720Z,86.09
2023-10-26T14:56:01.733Z,85.58
2023-10-26T14:58:04.596Z,86.24
2023-10-26T15:00:09.269Z,86.47
2023-10-26T15:02:12.150Z,86.05
2023-10-26T15:04:17.087Z,86.11
2023-10-26T15:06:20.091Z,86.29
2023-10-26T15:08:23.080Z,86.67
2023-10-26T15:10:29.763Z,87.54
2023-10-26T15:12:35.316Z,86.70
2023-10-26T15:14:38.250Z,87.71
2023-10-26T15:16:42.183Z,86.18
2023-10-26T15:18:46.386Z,87.01
2023-10-26T15:20:50.981Z,87.28
2023-10-26T15:22:53.850Z,85.34
2023-10-26T15:24:57.033Z,84.67
2023-10-26T15:27:00.413Z,84.92
2023-10-26T15:29:03.450Z,83.19
2023-10-26T15:31:06.457Z,84.60
2023-10-26T15:33:09.428Z,84.06
2023-10-26T15:35:12.545Z,84.46
2023-10-26T15:37:17.642Z,85.67
2023-10-26T15:39:20.674Z,84.66
2023-10-26T15:41:23.696Z,84.51
2023-10-26T15:43:26.716Z,86.18
2023-10-26T15:45:29.657Z,86.68
2023-10-26T15:47:32.663Z,86.72
2023-10-26T15:49:37.958Z,88.34
2023-10-26T15:51:40.882Z,89.19
2023-10-26T15:53:45.891Z,87.80
2023-10-26T15:55:57.120Z,89.22
2023-10-26T15:58:00.199Z,89.07
2023-10-26T16:00:07.808Z,88.60
2023-10-26T16:02:10.884Z,88.47
2023-10-26T16:04:13.880Z,88.30
2023-10-26T16:06:17.510Z,89.33
2023-10-26T16:08:20.466Z,88.49
2023-10-26T16:10:24.944Z,89.32
2023-10-26T16:12:27.842Z,88.59
2023-10-26T16:14:30.775Z,89.29
2023-10-26T16:16:33.867Z,87.70
2023-10-26T16:18:37.016Z,87.93
2023-10-26T16:20:39.926Z,89.44
2023-10-26T16:22:42.964Z,88.69
2023-10-26T16:24:46.164Z,90.04
2023-10-26T16:26:50.787Z,89.03
2023-10-26T16:28:53.752Z,90.17
2023-10-26T16:31:01.245Z,90.32
2023-10-26T16:33:04.852Z,89.06
2023-10-26T16:35:11.166Z,89.43
2023-10-26T16:37:14.085Z,89.26
2023-10-26T16:39:17.096Z,89.25
2023-10-26T16:41:20.154Z,89.49
2023-10-26T16:43:24.991Z,90.32
2023-10-26T16:45:28.212Z,90.46
2023-10-26T16:47:35.354Z,89.62
2023-10-26T16:49:44.148Z,90.98
2023-10-26T16:51:47.187Z,91.63
2023-10-26T16:53:50.172Z,92.88
2023-10-26T16:55:59.888Z,92.48
2023-10-26T16:58:02.763Z,92.27
2023-10-26T17:00:11.368Z,92.60
2023-10-26T17:02:14.423Z,93.41
2023-10-26T17:04:17.313Z,92.25
2023-10-26T17:06:20.253Z,93.16
2023-10-26T17:08:23.217Z,93.17
2023-10-26T17:10:26.185Z,90.66
2023-10-26T17:12:29.262Z,91.19
2023-10-26T17:14:32.071Z,90.69
2023-10-26T17:16:36.705Z,90.12
2023-10-26T17:18:39.779Z,90.69
2023-10-26T17:20:42.664Z,90.24
2023-10-26T17:22:45.590Z,90.47
2023-10-26T17:24:49.753Z,89.75
2023-10-26T17:26:52.618Z,89.88
2023-10-26T17:28:57.935Z,90.17
2023-10-26T17:31:07.202Z,90.88
2023-10-26T17:33:14.437Z,90.74
2023-10-26T17:35:17.931Z,92.19
2023-10-26T17:37:21.281Z,92.77
2023-10-26T17:39:25.732Z,92.51
2023-10-26T17:41:28.788Z,93.64
2023-10-26T17:43:31.630Z,94.79
2023-10-26T17:45:34.861Z,94.51
2023-10-26T17:47:37.884Z,93.60
2023-10-26T17:49:42.500Z,93.76
2023-10-26T17:51:45.550Z,92.72
2023-10-26T17:53:49.513Z,92.89
2023-10-26T17:55:58.743Z,92.79
2023-10-26T17:58:01.735Z,92.95
2023-10-26T18:00:05.811Z,92.51
2023-10-26T18:02:14.668Z,91.86
2023-10-26T18:04:17.610Z,91.76
2023-10-26T18:06:23.750Z,92.40
2023-10-26T18:08:26.589Z,92.95
2023-10-26T18:10:30.438Z,93.56
2023-10-26T18:12:33.430Z,93.35
2023-10-26T18:14:36.360Z,93.23
2023-10-26T18:16:39.487Z,93.40
2023-10-26T18:18:44.218Z,94.29
2023-10-26T18:20:55.537Z,94.63
2023-10-26T18:23:01.730Z,94.38
2023-10-26T18:25:05.331Z,94.47
2023-10-26T18:27:08.443Z,93.40
2023-10-26T18:29:11.307Z,92.51
2023-10-26T18:31:18.744Z,91.72
2023-10-26T18:33:21.650Z,90.40
2023-10-26T18:35:25.677Z,90.38
2023-10-26T18:37:28.713Z,90.14
2023-10-26T18:39:33.126Z,90.04
2023-10-26T18:41:36.047Z,90.06
2023-10-26T18:43:39.094Z,90.19
2023-10-26T18:45:42.202Z,90.45
2023-10-26T18:47:46.641Z,90.57
2023-10-26T18:49:51.053Z,90.38
2023-10-26T18:51:54.010Z,90.71
2023-10-26T18:53:57.175Z,89.97
2023-10-26T18:56:01.555Z,90.96
2023-10-26T18:58:04.595Z,91.92
2023-10-26T19:00:09.523Z,91.61
2023-10-26T19:02:12.682Z,92.23
2023-10-26T19:04:17.818Z,91.96
2023-10-26T19:06:20.782Z,93.68
2023-10-26T19:08:24.511Z,93.80
2023-10-26T19:10:27.584Z,91.98
2023-10-26T19:12:32.083Z,91.61
2023-10-26T19:14:35.058Z,91.19
2023-10-26T19:16:38.045Z,91.43
2023-10-26T19:18:41.107Z,90.61
2023-10-26T19:20:44.353Z,90.32
2023-10-26T19:22:49.332Z,90.49
2023-10-26T19:24:52.276Z,90.03
2023-10-26T19:26:55.312Z,90.41
2023-10-26T19:28:59.786Z,90.11
2023-10-26T19:31:02.756Z,90.19
2023-10-26T19:33:06.399Z,89.88
2023-10-26T19:35:09.484Z,90.02
2023-10-26T19:37:12.462Z,90.33
2023-10-26T19:39:15.383Z,91.67
2023-10-26T19:41:18.404Z,92.52
2023-10-26T19:43:21.384Z,91.76
2023-10-26T19:45:26.012Z,91.46
2023-10-26T19:47:29.006Z,91.27
2023-10-26T19:49:31.979Z,91.00
2023-10-26T19:51:34.870Z,90.37
2023-10-26T19:53:37.899Z,90.55
2023-10-26T19:55:41.135Z,89.92
2023-10-26T19:57:44.258Z,90.24
2023-10-26T19:59:47.663Z,90.63
2023-10-26T20:01:53.236Z,90.14
2023-10-26T20:03:56.270Z,90.34
2023-10-26T20:05:59.300Z,90.49
2023-10-26T20:08:02.187Z,90.72
2023-10-26T20:10:06.878Z,90.36
2023-10-26T20:12:10.378Z,90.78
2023-10-26T20:14:13.461Z,90.51
2023-10-26T20:16:16.772Z,90.58
2023-10-26T20:18:21.344Z,91.33
2023-10-26T20:20:29.787Z,91.29
2023-10-26T20:22:32.984Z,90.46
2023-10-26T20:24:36.148Z,90.97
2023-10-26T20:26:40.485Z,91.70
2023-10-26T20:28:43.786Z,92.05
2023-10-26T20:30:46.976Z,91.62
2023-10-26T20:32:50.418Z,91.85
2023-10-26T20:34:54.989Z,91.96
2023-10-26T20:36:58.922Z,91.79
2023-10-26T20:39:02.101Z,91.42
2023-10-26T20:41:07.171Z,91.52
2023-10-26T20:43:10.336Z,92.29
2023-10-26T20:45:13.442Z,92.40
2023-10-26T20:47:16.361Z,92.43
2023-10-26T20:49:19.438Z,92.14
2023-10-26T20:51:24.083Z,92.41
2023-10-26T20:53:29.239Z,93.17
2023-10-26T20:55:32.390Z,92.97
2023-10-26T20:57:35.360Z,93.16
2023-10-26T20:59:40.429Z,92.64
2023-10-26T21:01:45.129Z,92.26
2023-10-26T21:03:48.249Z,92.07
2023-10-26T21:05:51.861Z,92.51
2023-10-26T21:07:57.073Z,92.26
2023-10-26T21:10:00.144Z,91.69
2023-10-26T21:12:08.345Z,92.11
2023-10-26T21:14:13.033Z,92.64
2023-10-26T21:16:16.223Z,92.73
2023-10-26T21:18:19.169Z,93.37
2023-10-26T21:20:24.300Z,93.80
2023-10-26T21:22:27.256Z,94.02
2023-10-26T21:24:32.092Z,93.86
2023-10-26T21:26:34.961Z,93.53
2023-10-26T21:28:40.199Z,93.28
2023-10-26T21:30:43.134Z,93.10
2023-10-26T21:32:46.138Z,92.54
2023-10-26T21:34:49.122Z,93.12
2023-10-26T21:36:52.137Z,92.88
2023-10-26T21:38:55.052Z,92.74
2023-10-26T21:41:05.398Z,92.04
2023-10-26T21:43:08.380Z,91.90
2023-10-26T21:45:11.868Z,92.55
2023-10-26T21:47:14.895Z,93.05
2023-10-26T21:49:17.896Z,94.88
2023-10-26T21:51:20.780Z,94.40
2023-10-26T21:53:23.760Z,94.10
2023-10-26T21:55:26.656Z,93.49
2023-10-26T21:57:31.129Z,93.35
2023-10-26T21:59:34.199Z,93.53
2023-10-26T22:01:37.205Z,93.69
2023-10-26T22:03:40.573Z,93.16
2023-10-26T22:05:44.681Z,93.62
2023-10-26T22:07:47.639Z,93.03
2023-10-26T22:09:55.480Z,93.09
2023-10-26T22:11:58.758Z,93.22
2023-10-26T22:14:03.317Z,92.55
2023-10-26T22:16:06.808Z,93.00
2023-10-26T22:18:10.175Z,93.53
2023-10-26T22:20:13.279Z,92.70
2023-10-26T22:22:16.260Z,92.41
2023-10-26T22:24:19.321Z,92.82
2023-10-26T22:26:22.414Z,93.13
2023-10-26T22:28:25.283Z,93.32
2023-10-26T22:30:29.842Z,93.57
2023-10-26T22:32:32.754Z,93.50
2023-10-26T22:34:36.012Z,92.63
2023-10-26T22:36:39.390Z,92.04
2023-10-26T22:38:42.332Z,92.75
2023-10-26T22:40:45.451Z,92.47
2023-10-26T22:42:48.662Z,91.73
2023-10-26T22:44:51.824Z,92.83
2023-10-26T22:46:56.347Z,93.77
2023-10-26T22:48:59.540Z,93.60
2023-10-26T22:51:02.678Z,93.56
2023-10-26T22:53:05.652Z,94.58
2023-10-26T22:55:09.712Z,94.71
2023-10-26T22:57:12.676Z,94.31
2023-10-26T22:59:15.652Z,95.07
2023-10-26T23:01:23.299Z,95.54
2023-10-26T23:03:28.558Z,94.65
2023-10-26T23:05:31.422Z,94.33
2023-10-26T23:07:34.472Z,93.77
2023-10-26T23:09:37.704Z,94.10
2023-10-26T23:11:40.781Z,93.92
2023-10-26T23:13:43.735Z,94.63
2023-10-26T23:15:46.776Z,94.22
2023-10-26T23:17:49.753Z,93.75
2023-10-26T23:19:54.480Z,93.63
2023-10-26T23:21:57.490Z,93.61
2023-10-26T23:24:02.247Z,94.17
2023-10-26T23:26:08.168Z,94.23
2023-10-26T23:28:11.959Z,94.14
2023-10-26T23:30:15.456Z,93.87
2023-10-26T23:32:18.358Z,93.82
2023-10-26T23:34:21.357Z,93.29
2023-10-26T23:36:25.964Z,93.02
2023-10-26T23:38:28.780Z,92.34
2023-10-26T23:40:32.670Z,93.43
2023-10-26T23:42:35.610Z,92.36
2023-10-26T23:44:38.660Z,92.62
2023-10-26T23:46:41.484Z,92.16
2023-10-26T23:48:44.615Z,93.14
2023-10-26T23:50:47.515Z,94.20
2023-10-26T23:52:51.869Z,93.91
2023-10-26T23:54:54.910Z,94.91
2023-10-26T23:56:57.955Z,95.23
2023-10-26T23:59:03.593Z,95.95
